createdAt,value
2023-04-02T00:00:04.737Z,50.804398
2023-04-02T00:01:04.681Z,50.804356
2023-04-02T00:02:04.723Z,50.804359
2023-04-02T00:03:04.742Z,50.804371
2023-04-02T00:04:04.818Z,50.804390
2023-04-02T00:05:04.646Z,50.804409
2023-04-02T00:06:04.871Z,50.804417
2023-04-02T00:07:04.667Z,50.804440
2023-04-02T00:08:04.642Z,50.804508
2023-04-02T00:09:04.659Z,50.804424
2023-04-02T00:10:04.642Z,50.804440
2023-04-02T00:11:04.607Z,50.804379
2023-04-02T00:12:04.652Z,50.804321
2023-04-02T00:13:04.610Z,50.804298
2023-04-02T00:14:04.600Z,50.804348
2023-04-02T00:15:04.599Z,50.804371
2023-04-02T00:16:04.680Z,50.804333
2023-04-02T00:17:04.604Z,50.804325
2023-04-02T00:18:04.611Z,50.804367
2023-04-02T00:19:04.601Z,50.804348
2023-04-02T00:20:04.572Z,50.804409
2023-04-02T00:21:04.550Z,50.804363
2023-04-02T00:22:04.550Z,50.804337
2023-04-02T00:23:04.538Z,50.804356
2023-04-02T00:24:04.592Z,50.804386
2023-04-02T00:25:04.534Z,50.804382
2023-04-02T00:26:04.529Z,50.804371
2023-04-02T00:27:04.507Z,50.804207
2023-04-02T00:28:04.511Z,50.804340
2023-04-02T00:29:04.515Z,50.804371
2023-04-02T00:30:04.574Z,50.804337
2023-04-02T00:31:04.462Z,50.804398
2023-04-02T00:32:04.493Z,50.804352
2023-04-02T00:33:04.508Z,50.804329
2023-04-02T00:34:04.485Z,50.804306
2023-04-02T00:35:04.470Z,50.804348
2023-04-02T00:36:04.534Z,50.804394
2023-04-02T00:37:04.443Z,50.804436
2023-04-02T00:38:04.449Z,50.804379
2023-04-02T00:39:04.422Z,50.804348
2023-04-02T00:40:04.418Z,50.804379
2023-04-02T00:41:04.411Z,50.804371
2023-04-02T00:42:04.575Z,50.804371
2023-04-02T00:43:04.430Z,50.804348
2023-04-02T00:44:04.397Z,50.804314
2023-04-02T00:45:04.437Z,50.804329
2023-04-02T00:46:04.449Z,50.804371
2023-04-02T00:47:04.402Z,50.804356
2023-04-02T00:48:04.510Z,50.804359
2023-04-02T00:49:04.383Z,50.804356
2023-04-02T00:50:04.380Z,50.804337
2023-04-02T00:51:04.343Z,50.804310
2023-04-02T00:52:04.389Z,50.804344
2023-04-02T00:53:04.365Z,50.804329
2023-04-02T00:54:04.433Z,50.804356
2023-04-02T00:55:04.341Z,50.804367
2023-04-02T00:56:04.326Z,50.804375
2023-04-02T00:57:04.348Z,50.804348
2023-04-02T00:58:04.331Z,50.804329
2023-04-02T00:59:04.306Z,50.804325
2023-04-02T01:00:04.346Z,50.804321
2023-04-02T01:01:04.366Z,50.804317
2023-04-02T01:02:04.292Z,50.804314
2023-04-02T01:03:04.457Z,50.804325
2023-04-02T01:04:04.293Z,50.804302
2023-04-02T01:05:04.261Z,50.804306
2023-04-02T01:06:04.817Z,50.804298
2023-04-02T01:07:04.265Z,50.804325
2023-04-02T01:08:04.267Z,50.804317
2023-04-02T01:09:04.419Z,50.804348
2023-04-02T01:10:04.278Z,50.804310
2023-04-02T01:11:04.255Z,50.804317
2023-04-02T01:12:04.328Z,50.804337
2023-04-02T01:13:04.204Z,50.804344
2023-04-02T01:14:04.201Z,50.804340
2023-04-02T01:15:04.241Z,50.804302
2023-04-02T01:16:04.320Z,50.804317
2023-04-02T01:17:04.254Z,50.804321
2023-04-02T01:18:04.362Z,50.804321
2023-04-02T01:19:04.205Z,50.804333
2023-04-02T01:20:04.180Z,50.804352
2023-04-02T01:21:04.211Z,50.804348
2023-04-02T01:22:04.150Z,50.804451
2023-04-02T01:23:04.223Z,50.804405
2023-04-02T01:24:04.378Z,50.804379
2023-04-02T01:25:04.194Z,50.804417
2023-04-02T01:26:04.137Z,50.804409
2023-04-02T01:27:04.114Z,50.804367
2023-04-02T01:28:04.118Z,50.804337
2023-04-02T01:29:04.260Z,50.804428
2023-04-02T01:30:04.208Z,50.804382
2023-04-02T01:31:04.106Z,50.804359
2023-04-02T01:32:04.195Z,50.804333
2023-04-02T01:33:04.123Z,50.804340
2023-04-02T01:34:04.085Z,50.804348
2023-04-02T01:35:04.075Z,50.804356
2023-04-02T01:36:04.128Z,50.804340
2023-04-02T01:37:04.049Z,50.804356
2023-04-02T01:38:04.034Z,50.804352
2023-04-02T01:39:04.037Z,50.804340
2023-04-02T01:40:04.017Z,50.804340
2023-04-02T01:41:04.038Z,50.804344
2023-04-02T01:42:04.060Z,50.804356
2023-04-02T01:43:04.002Z,50.804379
2023-04-02T01:44:03.979Z,50.804348
2023-04-02T01:45:03.988Z,50.804356
2023-04-02T01:46:03.990Z,50.804352
2023-04-02T01:47:03.932Z,50.804348
2023-04-02T01:48:04.033Z,50.804344
2023-04-02T01:49:04.074Z,50.804340
2023-04-02T01:50:03.945Z,50.804340
2023-04-02T01:51:03.947Z,50.804352
2023-04-02T01:52:03.936Z,50.804352
2023-04-02T01:53:03.926Z,50.804344
2023-04-02T01:54:03.988Z,50.804337
2023-04-02T01:55:03.916Z,50.804340
2023-04-02T01:56:03.895Z,50.804321
2023-04-02T01:57:03.891Z,50.804333
2023-04-02T01:58:03.894Z,50.804333
2023-04-02T01:59:03.881Z,50.804348
2023-04-02T02:00:03.912Z,50.804363
2023-04-02T02:01:03.887Z,50.804337
2023-04-02T02:02:03.925Z,50.804333
2023-04-02T02:03:03.891Z,50.804401
2023-04-02T02:04:03.883Z,50.804405
2023-04-02T02:05:03.833Z,50.804371
2023-04-02T02:06:03.908Z,50.804394
2023-04-02T02:07:03.801Z,50.804310
2023-04-02T02:08:03.811Z,50.804321
2023-04-02T02:09:03.822Z,50.804337
2023-04-02T02:10:03.793Z,50.804348
2023-04-02T02:11:03.782Z,50.804302
2023-04-02T02:12:04.266Z,50.804310
2023-04-02T02:13:03.800Z,50.804264
2023-04-02T02:14:03.754Z,50.804302
2023-04-02T02:15:03.736Z,50.804329
2023-04-02T02:16:03.791Z,50.804329
2023-04-02T02:17:03.734Z,50.804329
2023-04-02T02:18:03.814Z,50.804310
2023-04-02T02:19:03.761Z,50.804348
2023-04-02T02:20:03.742Z,50.804359
2023-04-02T02:21:03.733Z,50.804375
2023-04-02T02:22:03.717Z,50.804356
2023-04-02T02:23:03.726Z,50.804325
2023-04-02T02:24:03.782Z,50.804340
2023-04-02T02:25:03.738Z,50.804356
2023-04-02T02:26:03.703Z,50.804367
2023-04-02T02:27:03.680Z,50.804314
2023-04-02T02:28:03.664Z,50.804337
2023-04-02T02:29:03.702Z,50.804371
2023-04-02T02:30:03.695Z,50.804379
2023-04-02T02:31:03.683Z,50.804375
2023-04-02T02:32:03.684Z,50.804344
2023-04-02T02:33:03.690Z,50.804340
2023-04-02T02:34:03.716Z,50.804367
2023-04-02T02:35:03.615Z,50.804379
2023-04-02T02:36:03.724Z,50.804333
2023-04-02T02:37:03.618Z,50.804317
2023-04-02T02:38:03.625Z,50.804344
2023-04-02T02:39:03.599Z,50.804348
2023-04-02T02:40:03.573Z,50.804398
2023-04-02T02:41:03.585Z,50.804356
2023-04-02T02:42:03.627Z,50.804375
2023-04-02T02:43:03.576Z,50.804329
2023-04-02T02:44:03.575Z,50.804333
2023-04-02T02:45:03.561Z,50.804333
2023-04-02T02:46:03.656Z,50.804340
2023-04-02T02:47:03.544Z,50.804321
2023-04-02T02:48:03.590Z,50.804298
2023-04-02T02:49:03.495Z,50.804340
2023-04-02T02:50:03.524Z,50.804298
2023-04-02T02:51:03.523Z,50.804268
2023-04-02T02:52:03.502Z,50.804325
2023-04-02T02:53:03.492Z,50.804348
2023-04-02T02:54:03.549Z,50.804371
2023-04-02T02:55:03.496Z,50.804386
2023-04-02T02:56:03.476Z,50.804348
2023-04-02T02:57:03.499Z,50.804333
2023-04-02T02:58:03.453Z,50.804356
2023-04-02T02:59:03.473Z,50.804352
2023-04-02T03:00:03.480Z,50.804379
2023-04-02T03:01:03.450Z,50.804356
2023-04-02T03:02:03.419Z,50.804356
2023-04-02T03:03:03.576Z,50.804314
2023-04-02T03:04:03.566Z,50.804356
2023-04-02T03:05:03.399Z,50.804344
2023-04-02T03:06:03.435Z,50.804310
2023-04-02T03:07:03.391Z,50.804348
2023-04-02T03:08:03.374Z,50.804363
2023-04-02T03:09:03.382Z,50.804287
2023-04-02T03:10:03.374Z,50.804314
2023-04-02T03:11:03.354Z,50.804276
2023-04-02T03:12:03.417Z,50.804306
2023-04-02T03:13:03.345Z,50.804344
2023-04-02T03:14:03.334Z,50.804306
2023-04-02T03:15:04.231Z,50.804344
2023-04-02T03:16:03.386Z,50.804352
2023-04-02T03:17:03.318Z,50.804344
2023-04-02T03:18:03.604Z,50.804371
2023-04-02T03:19:03.314Z,50.804379
2023-04-02T03:20:03.312Z,50.804314
2023-04-02T03:21:03.282Z,50.804298
2023-04-02T03:22:03.280Z,50.804356
2023-04-02T03:23:03.317Z,50.804359
2023-04-02T03:24:03.340Z,50.804348
2023-04-02T03:25:03.321Z,50.804325
2023-04-02T03:26:03.257Z,50.804317
2023-04-02T03:27:03.308Z,50.804333
2023-04-02T03:28:03.237Z,50.804310
2023-04-02T03:29:03.238Z,50.804337
2023-04-02T03:30:03.300Z,50.804306
2023-04-02T03:31:03.264Z,50.804310
2023-04-02T03:32:03.214Z,50.804337
2023-04-02T03:33:03.256Z,50.804272
2023-04-02T03:34:03.197Z,50.804268
2023-04-02T03:35:03.219Z,50.804317
2023-04-02T03:36:03.351Z,50.804379
2023-04-02T03:37:03.183Z,50.804367
2023-04-02T03:38:03.180Z,50.804367
2023-04-02T03:39:03.176Z,50.804298
2023-04-02T03:40:03.166Z,50.804348
2023-04-02T03:41:03.155Z,50.804348
2023-04-02T03:42:03.204Z,50.804348
2023-04-02T03:43:03.128Z,50.804295
2023-04-02T03:44:03.147Z,50.804321
2023-04-02T03:45:03.136Z,50.804325
2023-04-02T03:46:03.121Z,50.804279
2023-04-02T03:47:03.119Z,50.804268
2023-04-02T03:48:03.232Z,50.804306
2023-04-02T03:49:03.098Z,50.804291
2023-04-02T03:50:03.067Z,50.804302
2023-04-02T03:51:03.079Z,50.804306
2023-04-02T03:52:03.165Z,50.804340
2023-04-02T03:53:03.067Z,50.804333
2023-04-02T03:54:03.104Z,50.804283
2023-04-02T03:55:02.998Z,50.804333
2023-04-02T03:56:03.214Z,50.804321
2023-04-02T03:57:03.090Z,50.804352
2023-04-02T03:58:03.008Z,50.804348
2023-04-02T03:59:03.015Z,50.804344
2023-04-02T04:00:03.078Z,50.804298
2023-04-02T04:01:03.004Z,50.804317
2023-04-02T04:02:03.008Z,50.804333
2023-04-02T04:03:03.058Z,50.804325
2023-04-02T04:04:03.016Z,50.804310
2023-04-02T04:05:02.981Z,50.804291
2023-04-02T04:06:03.018Z,50.804295
2023-04-02T04:07:02.938Z,50.804302
2023-04-02T04:08:02.975Z,50.804306
2023-04-02T04:09:02.991Z,50.804268
2023-04-02T04:10:02.939Z,50.804245
2023-04-02T04:11:02.943Z,50.804344
2023-04-02T04:12:02.951Z,50.804337
2023-04-02T04:13:02.921Z,50.804279
2023-04-02T04:14:02.903Z,50.804249
2023-04-02T04:15:02.930Z,50.804268
2023-04-02T04:16:02.911Z,50.804291
2023-04-02T04:17:02.853Z,50.804329
2023-04-02T04:18:02.931Z,50.804295
2023-04-02T04:19:02.861Z,50.804329
2023-04-02T04:20:02.877Z,50.804310
2023-04-02T04:21:02.857Z,50.804337
2023-04-02T04:22:02.853Z,50.804352
2023-04-02T04:23:02.843Z,50.804207
2023-04-02T04:24:02.917Z,50.804253
2023-04-02T04:25:02.838Z,50.804337
2023-04-02T04:26:02.827Z,50.804359
2023-04-02T04:27:02.818Z,50.804302
2023-04-02T04:28:02.823Z,50.804214
2023-04-02T04:29:02.807Z,50.804295
2023-04-02T04:30:02.843Z,50.804333
2023-04-02T04:31:02.779Z,50.804276
2023-04-02T04:32:02.812Z,50.804302
2023-04-02T04:33:02.800Z,50.804279
2023-04-02T04:34:02.797Z,50.804272
2023-04-02T04:35:02.837Z,50.804298
2023-04-02T04:36:02.839Z,50.804291
2023-04-02T04:37:02.736Z,50.804287
2023-04-02T04:38:02.699Z,50.804249
2023-04-02T04:39:02.719Z,50.804279
2023-04-02T04:40:02.725Z,50.804287
2023-04-02T04:41:02.732Z,50.804306
2023-04-02T04:42:02.761Z,50.804302
2023-04-02T04:43:02.692Z,50.804314
2023-04-02T04:44:02.686Z,50.804317
2023-04-02T04:45:02.723Z,50.804306
2023-04-02T04:46:02.684Z,50.804283
2023-04-02T04:47:02.695Z,50.804237
2023-04-02T04:48:02.788Z,50.804283
2023-04-02T04:49:02.635Z,50.804310
2023-04-02T04:50:02.623Z,50.804329
2023-04-02T04:51:02.648Z,50.804317
2023-04-02T04:52:02.624Z,50.804356
2023-04-02T04:53:02.618Z,50.804302
2023-04-02T04:54:02.653Z,50.804317
2023-04-02T04:55:02.605Z,50.804329
2023-04-02T04:56:16.012Z,50.804295
2023-04-02T04:57:03.639Z,50.804302
2023-04-02T04:58:02.616Z,50.804287
2023-04-02T04:59:02.583Z,50.804264
2023-04-02T05:00:02.589Z,50.804310
2023-04-02T05:01:02.685Z,50.804276
2023-04-02T05:02:02.564Z,50.804295
2023-04-02T05:03:02.557Z,50.804283
2023-04-02T05:04:02.548Z,50.804306
2023-04-02T05:05:02.787Z,50.804359
2023-04-02T05:06:02.591Z,50.804302
2023-04-02T05:07:02.528Z,50.804363
2023-04-02T05:08:02.502Z,50.804314
2023-04-02T05:09:02.497Z,50.804325
2023-04-02T05:10:02.487Z,50.804337
2023-04-02T05:11:02.495Z,50.804283
2023-04-02T05:12:02.511Z,50.804325
2023-04-02T05:13:02.465Z,50.804291
2023-04-02T05:14:02.470Z,50.804317
2023-04-02T05:15:02.482Z,50.804314
2023-04-02T05:16:02.559Z,50.804348
2023-04-02T05:17:02.501Z,50.804295
2023-04-02T05:18:02.523Z,50.804291
2023-04-02T05:19:02.439Z,50.804256
2023-04-02T05:20:02.406Z,50.804291
2023-04-02T05:21:02.405Z,50.804276
2023-04-02T05:22:02.469Z,50.804306
2023-04-02T05:23:02.403Z,50.804321
2023-04-02T05:24:02.645Z,50.804310
2023-04-02T05:25:02.422Z,50.804306
2023-04-02T05:26:02.379Z,50.804310
2023-04-02T05:27:02.405Z,50.804295
2023-04-02T05:28:02.362Z,50.804302
2023-04-02T05:29:02.413Z,50.804302
2023-04-02T05:30:02.487Z,50.804306
2023-04-02T05:31:02.423Z,50.804276
2023-04-02T05:32:02.329Z,50.804264
2023-04-02T05:33:02.354Z,50.804287
2023-04-02T05:34:02.325Z,50.804314
2023-04-02T05:35:02.302Z,50.804291
2023-04-02T05:36:02.512Z,50.804317
2023-04-02T05:37:02.875Z,50.804314
2023-04-02T05:38:02.333Z,50.804340
2023-04-02T05:39:02.304Z,50.804306
2023-04-02T05:40:02.290Z,50.804356
2023-04-02T05:41:02.334Z,50.804363
2023-04-02T05:42:02.523Z,50.804375
2023-04-02T05:43:02.280Z,50.804310
2023-04-02T05:44:02.293Z,50.804310
2023-04-02T05:45:02.280Z,50.804329
2023-04-02T05:46:02.260Z,50.804348
2023-04-02T05:47:02.261Z,50.804329
2023-04-02T05:48:02.393Z,50.804371
2023-04-02T05:49:02.272Z,50.804359
2023-04-02T05:50:02.219Z,50.804356
2023-04-02T05:51:02.216Z,50.804367
2023-04-02T05:52:02.238Z,50.804340
2023-04-02T05:53:02.197Z,50.804348
2023-04-02T05:54:02.218Z,50.804375
2023-04-02T05:55:02.193Z,50.804371
2023-04-02T05:56:02.161Z,50.804340
2023-04-02T05:57:02.174Z,50.804390
2023-04-02T05:58:29.280Z,50.804398
2023-04-02T05:59:03.201Z,50.804424
2023-04-02T06:00:02.146Z,50.804379
2023-04-02T06:01:02.177Z,50.804333
2023-04-02T06:02:02.171Z,50.804390
2023-04-02T06:03:02.178Z,50.804409
2023-04-02T06:04:02.199Z,50.804386
2023-04-02T06:05:02.172Z,50.804394
2023-04-02T06:06:02.123Z,50.804394
2023-04-02T06:07:02.106Z,50.804352
2023-04-02T06:08:02.106Z,50.804321
2023-04-02T06:09:02.118Z,50.804337
2023-04-02T06:10:02.071Z,50.804325
2023-04-02T06:11:02.136Z,50.804356
2023-04-02T06:12:02.089Z,50.804417
2023-04-02T06:13:02.046Z,50.804359
2023-04-02T06:14:02.049Z,50.804363
2023-04-02T06:15:02.060Z,50.804302
2023-04-02T06:16:02.042Z,50.804325
2023-04-02T06:17:02.140Z,50.804352
2023-04-02T06:18:02.093Z,50.804352
2023-04-02T06:19:02.000Z,50.804317
2023-04-02T06:20:02.018Z,50.804348
2023-04-02T06:21:01.984Z,50.804340
2023-04-02T06:22:02.034Z,50.804379
2023-04-02T06:23:02.052Z,50.804371
2023-04-02T06:24:01.979Z,50.804325
2023-04-02T06:25:01.980Z,50.804310
2023-04-02T06:26:01.976Z,50.804291
2023-04-02T06:27:01.965Z,50.804344
2023-04-02T06:28:01.952Z,50.804348
2023-04-02T06:29:02.011Z,50.804306
2023-04-02T06:30:01.944Z,50.804279
2023-04-02T06:31:01.951Z,50.804337
2023-04-02T06:32:01.935Z,50.804333
2023-04-02T06:33:01.971Z,50.804310
2023-04-02T06:34:01.925Z,50.804344
2023-04-02T06:35:01.974Z,50.804321
2023-04-02T06:36:01.948Z,50.804337
2023-04-02T06:37:01.898Z,50.804375
2023-04-02T06:38:01.905Z,50.804352
2023-04-02T06:39:01.879Z,50.804340
2023-04-02T06:40:01.870Z,50.804340
2023-04-02T06:41:01.907Z,50.804447
2023-04-02T06:42:01.877Z,50.804379
2023-04-02T06:43:01.831Z,50.804440
2023-04-02T06:44:01.829Z,50.804401
2023-04-02T06:45:01.846Z,50.804398
2023-04-02T06:46:01.849Z,50.804424
2023-04-02T06:47:01.938Z,50.804401
2023-04-02T06:48:01.806Z,50.804367
2023-04-02T06:49:01.813Z,50.804382
2023-04-02T06:50:01.843Z,50.804420
2023-04-02T06:51:01.819Z,50.804455
2023-04-02T06:52:01.806Z,50.804432
2023-04-02T06:53:01.847Z,50.804409
2023-04-02T06:54:01.784Z,50.804352
2023-04-02T06:55:01.821Z,50.804340
2023-04-02T06:56:01.783Z,50.804344
2023-04-02T06:57:01.805Z,50.804321
2023-04-02T06:58:01.760Z,50.804352
2023-04-02T06:59:01.755Z,50.804382
2023-04-02T07:00:01.755Z,50.804390
2023-04-02T07:01:01.727Z,50.804382
2023-04-02T07:02:01.763Z,50.804321
2023-04-02T07:03:01.718Z,50.804398
2023-04-02T07:04:01.685Z,50.804436
2023-04-02T07:05:01.784Z,50.804478
2023-04-02T07:06:01.753Z,50.804489
2023-04-02T07:07:01.830Z,50.804459
2023-04-02T07:08:01.907Z,50.804417
2023-04-02T07:09:01.762Z,50.804455
2023-04-02T07:10:01.759Z,50.804344
2023-04-02T07:11:01.711Z,50.804329
2023-04-02T07:12:01.663Z,50.804279
2023-04-02T07:13:01.645Z,50.804379
2023-04-02T07:14:01.650Z,50.804356
2023-04-02T07:15:01.616Z,50.804420
2023-04-02T07:16:01.681Z,50.804337
2023-04-02T07:17:01.670Z,50.804424
2023-04-02T07:18:01.727Z,50.804409
2023-04-02T07:19:01.616Z,50.804356
2023-04-02T07:20:01.594Z,50.804363
2023-04-02T07:21:01.591Z,50.804310
2023-04-02T07:22:01.601Z,50.804356
2023-04-02T07:23:01.598Z,50.804352
2023-04-02T07:24:01.609Z,50.804371
2023-04-02T07:25:01.623Z,50.804394
2023-04-02T07:26:01.552Z,50.804375
2023-04-02T07:27:01.560Z,50.804394
2023-04-02T07:28:01.554Z,50.804398
2023-04-02T07:29:02.064Z,50.804379
2023-04-02T07:30:01.528Z,50.804386
2023-04-02T07:31:01.701Z,50.804375
2023-04-02T07:32:01.548Z,50.804340
2023-04-02T07:33:01.492Z,50.804314
2023-04-02T07:34:01.501Z,50.804337
2023-04-02T07:35:01.546Z,50.804371
2023-04-02T07:36:01.510Z,50.804401
2023-04-02T07:37:01.473Z,50.804436
2023-04-02T07:38:01.460Z,50.804405
2023-04-02T07:39:01.491Z,50.804379
2023-04-02T07:40:01.445Z,50.804379
2023-04-02T07:41:01.519Z,50.804337
2023-04-02T07:42:01.470Z,50.804321
2023-04-02T07:43:01.439Z,50.804356
2023-04-02T07:44:01.430Z,50.804382
2023-04-02T07:45:02.389Z,50.804417
2023-04-02T07:46:01.392Z,50.804382
2023-04-02T07:47:01.573Z,50.804420
2023-04-02T07:48:01.486Z,50.804344
2023-04-02T07:49:01.388Z,50.804371
2023-04-02T07:50:01.386Z,50.804390
2023-04-02T07:51:01.370Z,50.804390
2023-04-02T07:52:01.397Z,50.804375
2023-04-02T07:53:01.450Z,50.804356
2023-04-02T07:54:01.343Z,50.804371
2023-04-02T07:55:01.367Z,50.804352
2023-04-02T07:56:01.423Z,50.804375
2023-04-02T07:57:01.389Z,50.804375
2023-04-02T07:58:01.321Z,50.804367
2023-04-02T07:59:01.363Z,50.804337
2023-04-02T08:00:01.357Z,50.804375
2023-04-02T08:01:01.420Z,50.804375
2023-04-02T08:02:01.335Z,50.804382
2023-04-02T08:03:01.409Z,50.804405
2023-04-02T08:04:01.310Z,50.804367
2023-04-02T08:05:01.317Z,50.804352
2023-04-02T08:06:01.290Z,50.804321
2023-04-02T08:07:01.288Z,50.804356
2023-04-02T08:08:01.264Z,50.804405
2023-04-02T08:09:01.292Z,50.804340
2023-04-02T08:10:01.354Z,50.804302
2023-04-02T08:11:01.303Z,50.804390
2023-04-02T08:12:01.254Z,50.804363
2023-04-02T08:13:01.220Z,50.804340
2023-04-02T08:14:01.248Z,50.804317
2023-04-02T08:15:01.259Z,50.804314
2023-04-02T08:16:01.206Z,50.804287
2023-04-02T08:17:01.278Z,50.804325
2023-04-02T08:18:01.245Z,50.804321
2023-04-02T08:19:01.173Z,50.804356
2023-04-02T08:20:01.209Z,50.804363
2023-04-02T08:21:01.181Z,50.804447
2023-04-02T08:22:01.168Z,50.804394
2023-04-02T08:23:01.232Z,50.804356
2023-04-02T08:24:01.190Z,50.804356
2023-04-02T08:25:01.152Z,50.804344
2023-04-02T08:26:01.149Z,50.804291
2023-04-02T08:27:01.125Z,50.804359
2023-04-02T08:28:01.120Z,50.804398
2023-04-02T08:29:01.185Z,50.804417
2023-04-02T08:30:01.135Z,50.804470
2023-04-02T08:31:01.173Z,50.804447
2023-04-02T08:32:01.127Z,50.804432
2023-04-02T08:33:09.641Z,50.804436
2023-04-02T08:34:01.074Z,50.804451
2023-04-02T08:35:01.474Z,50.804482
2023-04-02T08:36:01.083Z,50.804516
2023-04-02T08:37:01.049Z,50.804493
2023-04-02T08:38:01.048Z,50.804535
2023-04-02T08:39:01.391Z,50.804493
2023-04-02T08:40:01.074Z,50.804455
2023-04-02T08:41:01.103Z,50.804382
2023-04-02T08:42:01.042Z,50.804379
2023-04-02T08:43:01.033Z,50.804317
2023-04-02T08:44:01.017Z,50.804317
2023-04-02T08:45:03.937Z,50.804314
2023-04-02T08:46:02.111Z,50.804348
2023-04-02T08:47:01.017Z,50.804321
2023-04-02T08:48:01.056Z,50.804295
2023-04-02T08:49:01.008Z,50.804283
2023-04-02T08:50:00.987Z,50.804310
2023-04-02T08:51:00.961Z,50.804321
2023-04-02T08:52:01.016Z,50.804306
2023-04-02T08:53:00.951Z,50.804264
2023-04-02T08:54:00.950Z,50.804272
2023-04-02T08:55:00.949Z,50.804276
2023-04-02T08:56:00.959Z,50.804283
2023-04-02T08:57:00.935Z,50.804283
2023-04-02T08:58:00.960Z,50.804287
2023-04-02T08:59:00.899Z,50.804314
2023-04-02T09:00:00.902Z,50.804302
2023-04-02T09:01:00.895Z,50.804279
2023-04-02T09:02:00.960Z,50.804306
2023-04-02T09:03:00.945Z,50.804325
2023-04-02T09:04:00.957Z,50.804310
2023-04-02T09:05:00.920Z,50.804321
2023-04-02T09:06:00.847Z,50.804291
2023-04-02T09:07:00.880Z,50.804340
2023-04-02T09:08:00.849Z,50.804310
2023-04-02T09:09:01.915Z,50.804333
2023-04-02T09:10:02.527Z,50.804333
2023-04-02T09:11:00.843Z,50.804348
2023-04-02T09:12:00.884Z,50.804348
2023-04-02T09:13:00.844Z,50.804340
2023-04-02T09:14:00.838Z,50.804371
2023-04-02T09:15:00.814Z,50.804340
2023-04-02T09:16:00.861Z,50.804329
2023-04-02T09:17:00.794Z,50.804295
2023-04-02T09:18:00.921Z,50.804348
2023-04-02T09:19:00.810Z,50.804371
2023-04-02T09:20:00.759Z,50.804329
2023-04-02T09:21:00.784Z,50.804352
2023-04-02T09:22:00.797Z,50.804340
2023-04-02T09:23:00.918Z,50.804325
2023-04-02T09:24:01.539Z,50.804375
2023-04-02T09:25:00.778Z,50.804348
2023-04-02T09:26:04.625Z,50.804359
2023-04-02T09:27:00.702Z,50.804375
2023-04-02T09:28:00.749Z,50.804333
2023-04-02T09:29:00.721Z,50.804321
2023-04-02T09:30:00.692Z,50.804375
2023-04-02T09:31:00.707Z,50.804348
2023-04-02T09:32:00.782Z,50.804348
2023-04-02T09:33:00.694Z,50.804337
2023-04-02T09:34:00.707Z,50.804344
2023-04-02T09:35:00.670Z,50.804310
2023-04-02T09:36:00.682Z,50.804367
2023-04-02T09:37:00.643Z,50.804340
2023-04-02T09:38:00.634Z,50.804340
2023-04-02T09:39:00.617Z,50.804314
2023-04-02T09:40:11.085Z,50.804302
2023-04-02T09:41:00.629Z,50.804333
2023-04-02T09:42:05.890Z,50.804295
2023-04-02T09:43:01.598Z,50.804321
2023-04-02T09:44:00.581Z,50.804314
2023-04-02T09:45:00.597Z,50.804306
2023-04-02T09:46:00.613Z,50.804314
2023-04-02T09:47:00.691Z,50.804340
2023-04-02T09:48:00.608Z,50.804340
2023-04-02T09:49:00.568Z,50.804363
2023-04-02T09:50:00.549Z,50.804390
2023-04-02T09:51:00.569Z,50.804379
2023-04-02T09:52:00.567Z,50.804405
2023-04-02T09:53:00.534Z,50.804379
2023-04-02T09:54:00.534Z,50.804386
2023-04-02T09:55:00.537Z,50.804382
2023-04-02T09:56:00.505Z,50.804379
2023-04-02T09:57:00.574Z,50.804375
2023-04-02T09:58:02.101Z,50.804413
2023-04-02T09:59:00.526Z,50.804401
2023-04-02T10:00:00.486Z,50.804375
2023-04-02T10:01:00.527Z,50.804398
2023-04-02T10:02:00.458Z,50.804379
2023-04-02T10:03:00.515Z,50.804382
2023-04-02T10:04:00.554Z,50.804363
2023-04-02T10:05:00.449Z,50.804386
2023-04-02T10:06:00.444Z,50.804337
2023-04-02T10:07:00.451Z,50.804367
2023-04-02T10:08:00.448Z,50.804436
2023-04-02T10:09:00.395Z,50.804417
2023-04-02T10:10:00.462Z,50.804344
2023-04-02T10:11:00.403Z,50.804352
2023-04-02T10:12:00.395Z,50.804340
2023-04-02T10:13:00.386Z,50.804333
2023-04-02T10:14:00.371Z,50.804321
2023-04-02T10:15:00.380Z,50.804344
2023-04-02T10:16:00.537Z,50.804321
2023-04-02T10:17:00.419Z,50.804302
2023-04-02T10:18:00.422Z,50.804310
2023-04-02T10:19:00.337Z,50.804314
2023-04-02T10:20:00.362Z,50.804348
2023-04-02T10:21:00.353Z,50.804306
2023-04-02T10:22:00.399Z,50.804333
2023-04-02T10:23:00.316Z,50.804321
2023-04-02T10:24:00.341Z,50.804302
2023-04-02T10:25:00.343Z,50.804317
2023-04-02T10:26:00.336Z,50.804359
2023-04-02T10:27:00.300Z,50.804317
2023-04-02T10:28:00.323Z,50.804314
2023-04-02T10:29:00.298Z,50.804352
2023-04-02T10:30:00.277Z,50.804333
2023-04-02T10:31:00.279Z,50.804390
2023-04-02T10:32:00.279Z,50.804325
2023-04-02T10:33:00.355Z,50.804352
2023-04-02T10:34:00.309Z,50.804375
2023-04-02T10:35:00.267Z,50.804348
2023-04-02T10:36:00.297Z,50.804337
2023-04-02T10:37:00.223Z,50.804291
2023-04-02T10:38:00.243Z,50.804245
2023-04-02T10:39:00.253Z,50.804253
2023-04-02T10:40:00.621Z,50.804256
2023-04-02T10:41:00.187Z,50.804237
2023-04-02T10:42:00.214Z,50.804298
2023-04-02T10:43:00.228Z,50.804314
2023-04-02T10:44:12.736Z,50.804340
2023-04-02T10:45:01.218Z,50.804337
2023-04-02T10:46:00.265Z,50.804287
2023-04-02T10:47:00.152Z,50.804314
2023-04-02T10:48:00.192Z,50.804325
2023-04-02T10:49:00.135Z,50.804298
2023-04-02T10:50:00.204Z,50.804317
2023-04-02T10:51:00.180Z,50.804329
2023-04-02T10:52:00.155Z,50.804325
2023-04-02T10:53:00.138Z,50.804279
2023-04-02T10:54:00.176Z,50.804314
2023-04-02T10:55:00.111Z,50.804359
2023-04-02T10:56:00.150Z,50.804329
2023-04-02T10:57:00.215Z,50.804329
2023-04-02T10:58:00.108Z,50.804348
2023-04-02T10:59:00.091Z,50.804329
2023-04-02T11:00:00.131Z,50.804283
2023-04-02T11:01:00.104Z,50.804333
2023-04-02T11:02:00.176Z,50.804337
2023-04-02T11:03:00.148Z,50.804348
2023-04-02T11:04:00.143Z,50.804306
2023-04-02T11:05:01.779Z,50.804329
2023-04-02T11:06:00.022Z,50.804337
2023-04-02T11:07:11.294Z,50.804390
2023-04-02T11:08:01.077Z,50.804321
2023-04-02T11:09:00.004Z,50.804367
2023-04-02T11:10:00.091Z,50.804382
2023-04-02T11:11:00.000Z,50.804363
2023-04-02T11:12:00.988Z,50.804317
2023-04-02T11:12:59.988Z,50.804363
2023-04-02T11:14:00.009Z,50.804379
2023-04-02T11:14:59.978Z,50.804314
2023-04-02T11:15:59.973Z,50.804287
2023-04-02T11:16:59.962Z,50.804302
2023-04-02T11:18:00.017Z,50.804283
2023-04-02T11:18:59.950Z,50.804283
2023-04-02T11:19:59.957Z,50.804268
2023-04-02T11:20:59.926Z,50.804260
2023-04-02T11:22:01.849Z,50.804276
2023-04-02T11:23:00.008Z,50.804279
2023-04-02T11:23:59.951Z,50.804314